sensor_id;sensor_type;location;lat;lon;timestamp;P1;durP1;ratioP1;P2;durP2;ratioP2
23123;SDS011;11731;48.592;8.858;2022-09-02T00:01:32;8.83;;;6.17;;
23123;SDS011;11731;48.592;8.858;2022-09-02T00:04:04;7.30;;;6.20;;
23123;SDS011;11731;48.592;8.858;2022-09-02T00:06:34;6.23;;;5.63;;
23123;SDS011;11731;48.592;8.858;2022-09-02T00:09:02;7.37;;;5.77;;
23123;SDS011;11731;48.592;8.858;2022-09-02T00:11:30;6.17;;;5.50;;
23123;SDS011;11731;48.592;8.858;2022-09-02T00:14:00;7.07;;;6.37;;
23123;SDS011;11731;48.592;8.858;2022-09-02T00:16:29;8.43;;;6.33;;
23123;SDS011;11731;48.592;8.858;2022-09-02T00:18:57;6.10;;;5.50;;
23123;SDS011;11731;48.592;8.858;2022-09-02T00:21:28;6.57;;;5.97;;
23123;SDS011;11731;48.592;8.858;2022-09-02T00:23:57;7.83;;;6.53;;
23123;SDS011;11731;48.592;8.858;2022-09-02T00:26:24;6.83;;;6.13;;
23123;SDS011;11731;48.592;8.858;2022-09-02T00:28:51;6.63;;;6.03;;
23123;SDS011;11731;48.592;8.858;2022-09-02T00:31:18;6.60;;;6.00;;
23123;SDS011;11731;48.592;8.858;2022-09-02T00:33:45;6.40;;;5.80;;
23123;SDS011;11731;48.592;8.858;2022-09-02T00:36:15;7.37;;;5.83;;
23123;SDS011;11731;48.592;8.858;2022-09-02T00:38:43;8.30;;;6.10;;
23123;SDS011;11731;48.592;8.858;2022-09-02T00:41:10;7.13;;;6.43;;
23123;SDS011;11731;48.592;8.858;2022-09-02T00:43:40;6.53;;;5.63;;
23123;SDS011;11731;48.592;8.858;2022-09-02T00:46:09;7.77;;;6.37;;
23123;SDS011;11731;48.592;8.858;2022-09-02T00:48:38;7.37;;;6.40;;
23123;SDS011;11731;48.592;8.858;2022-09-02T00:51:07;7.43;;;6.13;;
23123;SDS011;11731;48.592;8.858;2022-09-02T00:53:36;5.97;;;5.47;;
23123;SDS011;11731;48.592;8.858;2022-09-02T00:56:09;6.23;;;5.73;;
23123;SDS011;11731;48.592;8.858;2022-09-02T00:58:39;6.37;;;5.77;;
23123;SDS011;11731;48.592;8.858;2022-09-02T01:01:08;9.53;;;6.40;;
23123;SDS011;11731;48.592;8.858;2022-09-02T01:03:36;8.47;;;5.83;;
23123;SDS011;11731;48.592;8.858;2022-09-02T01:06:04;7.67;;;6.97;;
23123;SDS011;11731;48.592;8.858;2022-09-02T01:08:32;6.60;;;5.90;;
23123;SDS011;11731;48.592;8.858;2022-09-02T01:11:03;7.90;;;6.17;;
23123;SDS011;11731;48.592;8.858;2022-09-02T01:13:34;6.60;;;6.00;;
23123;SDS011;11731;48.592;8.858;2022-09-02T01:16:03;7.37;;;6.70;;
23123;SDS011;11731;48.592;8.858;2022-09-02T01:18:35;7.20;;;6.50;;
23123;SDS011;11731;48.592;8.858;2022-09-02T01:21:03;6.53;;;5.47;;
23123;SDS011;11731;48.592;8.858;2022-09-02T01:23:32;7.07;;;5.73;;
23123;SDS011;11731;48.592;8.858;2022-09-02T01:26:01;6.90;;;6.13;;
23123;SDS011;11731;48.592;8.858;2022-09-02T01:28:29;6.13;;;5.53;;
23123;SDS011;11731;48.592;8.858;2022-09-02T01:30:57;6.47;;;5.30;;
23123;SDS011;11731;48.592;8.858;2022-09-02T01:33:25;6.47;;;5.87;;
23123;SDS011;11731;48.592;8.858;2022-09-02T01:35:52;6.13;;;5.53;;
23123;SDS011;11731;48.592;8.858;2022-09-02T01:38:20;8.40;;;6.10;;
23123;SDS011;11731;48.592;8.858;2022-09-02T01:40:49;6.70;;;6.00;;
23123;SDS011;11731;48.592;8.858;2022-09-02T01:43:18;7.27;;;6.43;;
23123;SDS011;11731;48.592;8.858;2022-09-02T01:45:48;6.10;;;5.60;;
23123;SDS011;11731;48.592;8.858;2022-09-02T01:48:16;6.43;;;5.83;;
23123;SDS011;11731;48.592;8.858;2022-09-02T01:50:44;7.20;;;6.60;;
23123;SDS011;11731;48.592;8.858;2022-09-02T01:53:14;7.37;;;6.67;;
23123;SDS011;11731;48.592;8.858;2022-09-02T01:55:41;11.00;;;6.17;;
23123;SDS011;11731;48.592;8.858;2022-09-02T01:58:10;7.60;;;6.67;;
23123;SDS011;11731;48.592;8.858;2022-09-02T02:00:37;6.83;;;6.23;;
23123;SDS011;11731;48.592;8.858;2022-09-02T02:03:04;6.93;;;6.23;;
23123;SDS011;11731;48.592;8.858;2022-09-02T02:05:32;6.43;;;5.83;;
23123;SDS011;11731;48.592;8.858;2022-09-02T02:07:58;7.27;;;6.57;;
23123;SDS011;11731;48.592;8.858;2022-09-02T02:10:26;7.90;;;6.77;;
23123;SDS011;11731;48.592;8.858;2022-09-02T02:12:53;8.10;;;6.77;;
23123;SDS011;11731;48.592;8.858;2022-09-02T02:15:21;7.97;;;7.10;;
23123;SDS011;11731;48.592;8.858;2022-09-02T02:17:48;6.83;;;6.23;;
23123;SDS011;11731;48.592;8.858;2022-09-02T02:20:16;7.30;;;6.70;;
23123;SDS011;11731;48.592;8.858;2022-09-02T02:22:44;7.43;;;6.07;;
23123;SDS011;11731;48.592;8.858;2022-09-02T02:25:11;7.20;;;6.50;;
23123;SDS011;11731;48.592;8.858;2022-09-02T02:27:40;8.60;;;6.87;;
23123;SDS011;11731;48.592;8.858;2022-09-02T02:30:08;8.03;;;7.23;;
23123;SDS011;11731;48.592;8.858;2022-09-02T02:32:37;7.53;;;6.83;;
23123;SDS011;11731;48.592;8.858;2022-09-02T02:35:06;7.83;;;7.07;;
23123;SDS011;11731;48.592;8.858;2022-09-02T02:37:35;7.47;;;6.67;;
23123;SDS011;11731;48.592;8.858;2022-09-02T02:40:02;7.50;;;6.77;;
23123;SDS011;11731;48.592;8.858;2022-09-02T02:42:31;7.50;;;6.70;;
23123;SDS011;11731;48.592;8.858;2022-09-02T02:44:58;9.63;;;6.90;;
23123;SDS011;11731;48.592;8.858;2022-09-02T02:47:25;8.17;;;6.53;;
23123;SDS011;11731;48.592;8.858;2022-09-02T02:49:53;7.63;;;6.80;;
23123;SDS011;11731;48.592;8.858;2022-09-02T02:52:20;7.00;;;6.30;;
23123;SDS011;11731;48.592;8.858;2022-09-02T02:54:47;7.73;;;6.60;;
23123;SDS011;11731;48.592;8.858;2022-09-02T02:57:14;7.77;;;6.20;;
23123;SDS011;11731;48.592;8.858;2022-09-02T02:59:41;7.70;;;6.17;;
23123;SDS011;11731;48.592;8.858;2022-09-02T03:02:07;7.53;;;6.60;;
23123;SDS011;11731;48.592;8.858;2022-09-02T03:04:34;6.40;;;5.80;;
23123;SDS011;11731;48.592;8.858;2022-09-02T03:07:05;6.83;;;5.93;;
23123;SDS011;11731;48.592;8.858;2022-09-02T03:09:32;6.63;;;5.93;;
23123;SDS011;11731;48.592;8.858;2022-09-02T03:12:00;6.40;;;5.90;;
23123;SDS011;11731;48.592;8.858;2022-09-02T03:14:27;7.87;;;5.83;;
23123;SDS011;11731;48.592;8.858;2022-09-02T03:16:56;6.93;;;5.80;;
23123;SDS011;11731;48.592;8.858;2022-09-02T03:19:24;6.43;;;5.83;;
23123;SDS011;11731;48.592;8.858;2022-09-02T03:21:51;8.23;;;5.87;;
23123;SDS011;11731;48.592;8.858;2022-09-02T03:24:20;6.13;;;5.63;;
23123;SDS011;11731;48.592;8.858;2022-09-02T03:26:47;5.83;;;5.30;;
23123;SDS011;11731;48.592;8.858;2022-09-02T03:29:14;7.73;;;5.60;;
23123;SDS011;11731;48.592;8.858;2022-09-02T03:31:41;6.30;;;5.70;;
23123;SDS011;11731;48.592;8.858;2022-09-02T03:34:07;6.47;;;5.87;;
23123;SDS011;11731;48.592;8.858;2022-09-02T03:36:37;6.43;;;5.83;;
23123;SDS011;11731;48.592;8.858;2022-09-02T03:39:08;6.93;;;5.83;;
23123;SDS011;11731;48.592;8.858;2022-09-02T03:41:37;6.23;;;5.70;;
23123;SDS011;11731;48.592;8.858;2022-09-02T03:44:05;7.40;;;6.13;;
23123;SDS011;11731;48.592;8.858;2022-09-02T03:46:32;6.90;;;6.20;;
23123;SDS011;11731;48.592;8.858;2022-09-02T03:49:00;6.47;;;5.70;;
23123;SDS011;11731;48.592;8.858;2022-09-02T03:51:27;8.63;;;6.27;;
23123;SDS011;11731;48.592;8.858;2022-09-02T03:53:55;6.57;;;5.90;;
23123;SDS011;11731;48.592;8.858;2022-09-02T03:56:21;6.33;;;5.73;;
23123;SDS011;11731;48.592;8.858;2022-09-02T03:58:50;7.93;;;6.00;;
23123;SDS011;11731;48.592;8.858;2022-09-02T04:01:20;6.73;;;5.83;;
23123;SDS011;11731;48.592;8.858;2022-09-02T04:03:50;6.53;;;5.93;;
23123;SDS011;11731;48.592;8.858;2022-09-02T04:06:17;10.53;;;5.67;;
23123;SDS011;11731;48.592;8.858;2022-09-02T04:08:46;6.47;;;5.87;;
23123;SDS011;11731;48.592;8.858;2022-09-02T04:11:14;6.67;;;6.00;;
23123;SDS011;11731;48.592;8.858;2022-09-02T04:13:43;6.33;;;5.73;;
23123;SDS011;11731;48.592;8.858;2022-09-02T04:16:12;6.33;;;5.73;;
23123;SDS011;11731;48.592;8.858;2022-09-02T04:18:41;6.07;;;5.47;;
23123;SDS011;11731;48.592;8.858;2022-09-02T04:21:08;6.57;;;5.97;;
23123;SDS011;11731;48.592;8.858;2022-09-02T04:23:35;6.60;;;5.90;;
23123;SDS011;11731;48.592;8.858;2022-09-02T04:26:03;6.63;;;6.03;;
23123;SDS011;11731;48.592;8.858;2022-09-02T04:28:30;8.43;;;6.10;;
23123;SDS011;11731;48.592;8.858;2022-09-02T04:30:57;5.93;;;5.43;;
23123;SDS011;11731;48.592;8.858;2022-09-02T04:33:26;7.30;;;5.33;;
23123;SDS011;11731;48.592;8.858;2022-09-02T04:35:52;5.77;;;5.17;;
23123;SDS011;11731;48.592;8.858;2022-09-02T04:38:19;5.70;;;5.20;;
23123;SDS011;11731;48.592;8.858;2022-09-02T04:40:46;6.57;;;5.47;;
23123;SDS011;11731;48.592;8.858;2022-09-02T04:43:13;5.33;;;4.90;;
23123;SDS011;11731;48.592;8.858;2022-09-02T04:45:41;5.93;;;5.37;;
23123;SDS011;11731;48.592;8.858;2022-09-02T04:48:09;6.20;;;5.13;;
23123;SDS011;11731;48.592;8.858;2022-09-02T04:50:38;6.43;;;5.80;;
23123;SDS011;11731;48.592;8.858;2022-09-02T04:53:05;5.90;;;5.40;;
23123;SDS011;11731;48.592;8.858;2022-09-02T04:55:33;6.97;;;5.27;;
23123;SDS011;11731;48.592;8.858;2022-09-02T04:58:00;7.07;;;4.43;;
23123;SDS011;11731;48.592;8.858;2022-09-02T05:00:28;6.10;;;5.50;;
23123;SDS011;11731;48.592;8.858;2022-09-02T05:02:55;7.03;;;4.87;;
23123;SDS011;11731;48.592;8.858;2022-09-02T05:05:22;5.80;;;4.80;;
23123;SDS011;11731;48.592;8.858;2022-09-02T05:07:50;4.90;;;4.50;;
23123;SDS011;11731;48.592;8.858;2022-09-02T05:10:20;5.20;;;4.80;;
23123;SDS011;11731;48.592;8.858;2022-09-02T05:12:47;5.10;;;4.60;;
23123;SDS011;11731;48.592;8.858;2022-09-02T05:15:14;5.67;;;4.60;;
23123;SDS011;11731;48.592;8.858;2022-09-02T05:17:41;6.53;;;4.80;;
23123;SDS011;11731;48.592;8.858;2022-09-02T05:20:08;5.73;;;4.77;;
23123;SDS011;11731;48.592;8.858;2022-09-02T05:22:35;5.10;;;4.50;;
23123;SDS011;11731;48.592;8.858;2022-09-02T05:25:04;5.33;;;4.70;;
23123;SDS011;11731;48.592;8.858;2022-09-02T05:27:33;5.10;;;4.67;;
23123;SDS011;11731;48.592;8.858;2022-09-02T05:30:00;6.43;;;5.10;;
23123;SDS011;11731;48.592;8.858;2022-09-02T05:32:29;6.63;;;5.37;;
23123;SDS011;11731;48.592;8.858;2022-09-02T05:34:56;5.97;;;5.17;;
23123;SDS011;11731;48.592;8.858;2022-09-02T05:37:23;7.67;;;4.90;;
23123;SDS011;11731;48.592;8.858;2022-09-02T05:39:50;5.43;;;4.93;;
23123;SDS011;11731;48.592;8.858;2022-09-02T05:42:19;6.10;;;4.80;;
23123;SDS011;11731;48.592;8.858;2022-09-02T05:44:46;5.53;;;4.77;;
23123;SDS011;11731;48.592;8.858;2022-09-02T05:47:13;5.90;;;4.53;;
23123;SDS011;11731;48.592;8.858;2022-09-02T05:49:40;5.60;;;5.00;;
23123;SDS011;11731;48.592;8.858;2022-09-02T05:52:07;6.50;;;5.10;;
23123;SDS011;11731;48.592;8.858;2022-09-02T05:54:36;5.53;;;4.93;;
23123;SDS011;11731;48.592;8.858;2022-09-02T05:57:05;5.30;;;4.80;;
23123;SDS011;11731;48.592;8.858;2022-09-02T05:59:35;5.40;;;4.23;;
23123;SDS011;11731;48.592;8.858;2022-09-02T06:02:06;5.10;;;4.60;;
23123;SDS011;11731;48.592;8.858;2022-09-02T06:04:35;5.43;;;4.30;;
23123;SDS011;11731;48.592;8.858;2022-09-02T06:07:03;4.60;;;4.20;;
23123;SDS011;11731;48.592;8.858;2022-09-02T06:09:30;5.37;;;4.87;;
23123;SDS011;11731;48.592;8.858;2022-09-02T06:11:57;5.13;;;4.27;;
23123;SDS011;11731;48.592;8.858;2022-09-02T06:14:24;5.87;;;4.63;;
23123;SDS011;11731;48.592;8.858;2022-09-02T06:16:54;7.27;;;4.40;;
23123;SDS011;11731;48.592;8.858;2022-09-02T06:19:22;6.40;;;4.83;;
23123;SDS011;11731;48.592;8.858;2022-09-02T06:21:53;5.53;;;4.33;;
23123;SDS011;11731;48.592;8.858;2022-09-02T06:24:20;5.20;;;4.50;;
23123;SDS011;11731;48.592;8.858;2022-09-02T06:26:47;6.13;;;4.17;;
23123;SDS011;11731;48.592;8.858;2022-09-02T06:29:14;4.83;;;4.30;;
23123;SDS011;11731;48.592;8.858;2022-09-02T06:31:42;9.67;;;5.27;;
23123;SDS011;11731;48.592;8.858;2022-09-02T06:34:11;5.40;;;4.60;;
23123;SDS011;11731;48.592;8.858;2022-09-02T06:36:40;5.57;;;4.20;;
23123;SDS011;11731;48.592;8.858;2022-09-02T06:39:09;5.07;;;4.10;;
23123;SDS011;11731;48.592;8.858;2022-09-02T06:41:36;6.53;;;4.00;;
23123;SDS011;11731;48.592;8.858;2022-09-02T06:44:05;6.13;;;4.27;;
23123;SDS011;11731;48.592;8.858;2022-09-02T06:46:35;4.97;;;4.00;;
23123;SDS011;11731;48.592;8.858;2022-09-02T06:49:04;4.37;;;3.27;;
23123;SDS011;11731;48.592;8.858;2022-09-02T06:51:35;6.67;;;3.63;;
23123;SDS011;11731;48.592;8.858;2022-09-02T06:54:03;4.30;;;3.40;;
23123;SDS011;11731;48.592;8.858;2022-09-02T06:56:32;3.47;;;3.10;;
23123;SDS011;11731;48.592;8.858;2022-09-02T06:58:59;3.90;;;3.43;;
23123;SDS011;11731;48.592;8.858;2022-09-02T07:01:27;4.60;;;3.37;;
23123;SDS011;11731;48.592;8.858;2022-09-02T07:03:56;5.63;;;3.70;;
23123;SDS011;11731;48.592;8.858;2022-09-02T07:06:42;3.83;;;3.43;;
23123;SDS011;11731;48.592;8.858;2022-09-02T07:09:12;4.20;;;3.30;;
23123;SDS011;11731;48.592;8.858;2022-09-02T07:11:41;5.90;;;3.20;;
23123;SDS011;11731;48.592;8.858;2022-09-02T07:14:11;3.57;;;2.50;;
23123;SDS011;11731;48.592;8.858;2022-09-02T07:16:41;4.10;;;2.63;;
23123;SDS011;11731;48.592;8.858;2022-09-02T07:19:09;2.73;;;2.53;;
23123;SDS011;11731;48.592;8.858;2022-09-02T07:21:37;3.63;;;3.03;;
23123;SDS011;11731;48.592;8.858;2022-09-02T07:24:07;6.00;;;2.77;;
23123;SDS011;11731;48.592;8.858;2022-09-02T07:26:34;3.80;;;2.40;;
23123;SDS011;11731;48.592;8.858;2022-09-02T07:29:02;3.33;;;2.90;;
23123;SDS011;11731;48.592;8.858;2022-09-02T07:31:33;3.33;;;3.03;;
23123;SDS011;11731;48.592;8.858;2022-09-02T07:34:00;5.00;;;2.70;;
23123;SDS011;11731;48.592;8.858;2022-09-02T07:36:28;4.80;;;2.77;;
23123;SDS011;11731;48.592;8.858;2022-09-02T07:38:55;4.90;;;2.60;;
23123;SDS011;11731;48.592;8.858;2022-09-02T07:41:23;3.60;;;2.63;;
23123;SDS011;11731;48.592;8.858;2022-09-02T07:43:51;3.13;;;2.80;;
23123;SDS011;11731;48.592;8.858;2022-09-02T07:46:18;2.93;;;2.63;;
23123;SDS011;11731;48.592;8.858;2022-09-02T07:48:45;2.87;;;2.20;;
23123;SDS011;11731;48.592;8.858;2022-09-02T07:51:14;2.60;;;2.40;;
23123;SDS011;11731;48.592;8.858;2022-09-02T07:53:42;6.30;;;2.80;;
23123;SDS011;11731;48.592;8.858;2022-09-02T07:56:09;2.50;;;2.17;;
23123;SDS011;11731;48.592;8.858;2022-09-02T07:58:39;4.53;;;2.30;;
23123;SDS011;11731;48.592;8.858;2022-09-02T08:01:06;2.40;;;2.20;;
23123;SDS011;11731;48.592;8.858;2022-09-02T08:03:33;3.47;;;2.20;;
23123;SDS011;11731;48.592;8.858;2022-09-02T08:06:02;2.80;;;1.80;;
23123;SDS011;11731;48.592;8.858;2022-09-02T08:08:29;1.90;;;1.53;;
23123;SDS011;11731;48.592;8.858;2022-09-02T08:10:56;3.40;;;1.30;;
23123;SDS011;11731;48.592;8.858;2022-09-02T08:13:23;2.20;;;1.40;;
23123;SDS011;11731;48.592;8.858;2022-09-02T08:15:51;3.00;;;1.40;;
23123;SDS011;11731;48.592;8.858;2022-09-02T08:18:18;1.60;;;1.50;;
23123;SDS011;11731;48.592;8.858;2022-09-02T08:20:46;2.17;;;1.80;;
23123;SDS011;11731;48.592;8.858;2022-09-02T08:23:13;2.17;;;1.70;;
23123;SDS011;11731;48.592;8.858;2022-09-02T08:25:40;1.60;;;1.30;;
23123;SDS011;11731;48.592;8.858;2022-09-02T08:28:07;2.43;;;1.30;;
23123;SDS011;11731;48.592;8.858;2022-09-02T08:30:34;1.60;;;1.30;;
23123;SDS011;11731;48.592;8.858;2022-09-02T08:33:03;3.73;;;1.67;;
23123;SDS011;11731;48.592;8.858;2022-09-02T08:35:30;1.80;;;1.50;;
23123;SDS011;11731;48.592;8.858;2022-09-02T08:37:57;1.87;;;1.40;;
23123;SDS011;11731;48.592;8.858;2022-09-02T08:40:27;1.57;;;1.40;;
23123;SDS011;11731;48.592;8.858;2022-09-02T08:42:58;5.53;;;1.70;;
23123;SDS011;11731;48.592;8.858;2022-09-02T08:45:27;2.47;;;1.60;;
23123;SDS011;11731;48.592;8.858;2022-09-02T08:48:01;4.30;;;1.40;;
23123;SDS011;11731;48.592;8.858;2022-09-02T08:50:34;5.13;;;1.57;;
23123;SDS011;11731;48.592;8.858;2022-09-02T08:53:03;1.67;;;1.30;;
23123;SDS011;11731;48.592;8.858;2022-09-02T08:55:38;1.67;;;1.50;;
23123;SDS011;11731;48.592;8.858;2022-09-02T08:58:12;2.07;;;1.50;;
23123;SDS011;11731;48.592;8.858;2022-09-02T09:00:42;1.57;;;1.37;;
23123;SDS011;11731;48.592;8.858;2022-09-02T09:03:18;1.70;;;1.60;;
23123;SDS011;11731;48.592;8.858;2022-09-02T09:05:51;3.07;;;1.60;;
23123;SDS011;11731;48.592;8.858;2022-09-02T09:08:27;1.47;;;1.37;;
23123;SDS011;11731;48.592;8.858;2022-09-02T09:11:04;5.53;;;1.60;;
23123;SDS011;11731;48.592;8.858;2022-09-02T09:16:39;1.70;;;1.40;;
23123;SDS011;11731;48.592;8.858;2022-09-02T09:19:12;4.73;;;1.70;;
23123;SDS011;11731;48.592;8.858;2022-09-02T09:21:40;1.47;;;1.37;;
23123;SDS011;11731;48.592;8.858;2022-09-02T09:24:15;2.67;;;1.43;;
23123;SDS011;11731;48.592;8.858;2022-09-02T09:26:47;5.43;;;1.50;;
23123;SDS011;11731;48.592;8.858;2022-09-02T09:29:14;2.20;;;1.67;;
23123;SDS011;11731;48.592;8.858;2022-09-02T09:31:40;4.47;;;1.57;;
23123;SDS011;11731;48.592;8.858;2022-09-02T09:34:10;3.63;;;1.80;;
23123;SDS011;11731;48.592;8.858;2022-09-02T09:36:43;1.87;;;1.30;;
23123;SDS011;11731;48.592;8.858;2022-09-02T09:39:17;2.30;;;1.53;;
23123;SDS011;11731;48.592;8.858;2022-09-02T09:41:49;1.50;;;1.30;;
23123;SDS011;11731;48.592;8.858;2022-09-02T09:44:39;1.60;;;1.20;;
23123;SDS011;11731;48.592;8.858;2022-09-02T09:47:10;1.87;;;1.40;;
23123;SDS011;11731;48.592;8.858;2022-09-02T09:49:45;1.60;;;1.40;;
23123;SDS011;11731;48.592;8.858;2022-09-02T09:52:23;1.50;;;1.40;;
23123;SDS011;11731;48.592;8.858;2022-09-02T09:55:07;3.43;;;1.60;;
23123;SDS011;11731;48.592;8.858;2022-09-02T09:57:37;3.27;;;1.50;;
23123;SDS011;11731;48.592;8.858;2022-09-02T10:00:09;1.73;;;1.60;;
23123;SDS011;11731;48.592;8.858;2022-09-02T10:02:45;1.50;;;1.40;;
23123;SDS011;11731;48.592;8.858;2022-09-02T10:05:17;2.00;;;1.80;;
23123;SDS011;11731;48.592;8.858;2022-09-02T10:07:53;3.90;;;1.60;;
23123;SDS011;11731;48.592;8.858;2022-09-02T10:10:22;1.83;;;1.50;;
23123;SDS011;11731;48.592;8.858;2022-09-02T10:12:52;3.07;;;1.27;;
23123;SDS011;11731;48.592;8.858;2022-09-02T10:15:23;3.13;;;1.60;;
23123;SDS011;11731;48.592;8.858;2022-09-02T10:17:59;3.13;;;1.50;;
23123;SDS011;11731;48.592;8.858;2022-09-02T10:20:42;2.23;;;1.50;;
23123;SDS011;11731;48.592;8.858;2022-09-02T10:23:26;1.47;;;1.37;;
23123;SDS011;11731;48.592;8.858;2022-09-02T10:26:06;2.00;;;1.70;;
23123;SDS011;11731;48.592;8.858;2022-09-02T10:28:48;1.63;;;1.30;;
23123;SDS011;11731;48.592;8.858;2022-09-02T10:31:36;1.43;;;1.30;;
23123;SDS011;11731;48.592;8.858;2022-09-02T10:34:14;1.97;;;1.20;;
23123;SDS011;11731;48.592;8.858;2022-09-02T10:36:53;1.23;;;1.13;;
23123;SDS011;11731;48.592;8.858;2022-09-02T10:39:38;3.03;;;1.13;;
23123;SDS011;11731;48.592;8.858;2022-09-02T10:42:26;1.40;;;1.20;;
23123;SDS011;11731;48.592;8.858;2022-09-02T10:45:01;1.50;;;1.40;;
23123;SDS011;11731;48.592;8.858;2022-09-02T10:47:36;2.10;;;1.40;;
23123;SDS011;11731;48.592;8.858;2022-09-02T10:50:08;3.70;;;1.30;;
23123;SDS011;11731;48.592;8.858;2022-09-02T10:53:04;2.13;;;1.30;;
23123;SDS011;11731;48.592;8.858;2022-09-02T10:55:48;2.20;;;1.27;;
23123;SDS011;11731;48.592;8.858;2022-09-02T10:58:23;1.90;;;1.40;;
23123;SDS011;11731;48.592;8.858;2022-09-02T11:01:00;3.20;;;1.17;;
23123;SDS011;11731;48.592;8.858;2022-09-02T11:03:29;1.83;;;1.33;;
23123;SDS011;11731;48.592;8.858;2022-09-02T11:06:04;1.70;;;1.40;;
23123;SDS011;11731;48.592;8.858;2022-09-02T11:08:40;1.50;;;1.40;;
23123;SDS011;11731;48.592;8.858;2022-09-02T11:11:12;4.83;;;1.40;;
23123;SDS011;11731;48.592;8.858;2022-09-02T11:13:49;1.60;;;1.30;;
23123;SDS011;11731;48.592;8.858;2022-09-02T11:16:24;1.30;;;1.20;;
23123;SDS011;11731;48.592;8.858;2022-09-02T11:18:55;2.13;;;1.40;;
23123;SDS011;11731;48.592;8.858;2022-09-02T11:21:30;2.63;;;1.57;;
23123;SDS011;11731;48.592;8.858;2022-09-02T11:24:07;1.50;;;1.40;;
23123;SDS011;11731;48.592;8.858;2022-09-02T11:26:40;1.83;;;1.40;;
23123;SDS011;11731;48.592;8.858;2022-09-02T11:29:14;1.40;;;1.30;;
23123;SDS011;11731;48.592;8.858;2022-09-02T11:31:45;1.23;;;1.13;;
23123;SDS011;11731;48.592;8.858;2022-09-02T11:34:18;1.60;;;1.50;;
23123;SDS011;11731;48.592;8.858;2022-09-02T11:36:51;1.50;;;1.40;;
23123;SDS011;11731;48.592;8.858;2022-09-02T11:39:21;1.33;;;1.23;;
23123;SDS011;11731;48.592;8.858;2022-09-02T11:41:57;1.83;;;1.30;;
23123;SDS011;11731;48.592;8.858;2022-09-02T11:44:44;1.60;;;1.50;;
23123;SDS011;11731;48.592;8.858;2022-09-02T11:50:22;2.90;;;1.37;;
23123;SDS011;11731;48.592;8.858;2022-09-02T11:53:09;2.03;;;1.10;;
23123;SDS011;11731;48.592;8.858;2022-09-02T11:55:47;2.53;;;1.60;;
23123;SDS011;11731;48.592;8.858;2022-09-02T11:58:30;1.97;;;1.40;;
23123;SDS011;11731;48.592;8.858;2022-09-02T12:01:05;1.60;;;1.20;;
23123;SDS011;11731;48.592;8.858;2022-09-02T12:03:48;1.43;;;1.33;;
23123;SDS011;11731;48.592;8.858;2022-09-02T12:06:19;1.40;;;1.30;;
23123;SDS011;11731;48.592;8.858;2022-09-02T12:17:36;2.33;;;1.20;;
23123;SDS011;11731;48.592;8.858;2022-09-02T12:20:11;4.53;;;1.40;;
23123;SDS011;11731;48.592;8.858;2022-09-02T12:22:53;1.87;;;1.40;;
23123;SDS011;11731;48.592;8.858;2022-09-02T12:28:16;1.57;;;1.43;;
23123;SDS011;11731;48.592;8.858;2022-09-02T12:31:09;2.07;;;1.70;;
23123;SDS011;11731;48.592;8.858;2022-09-02T12:33:43;4.37;;;1.40;;
23123;SDS011;11731;48.592;8.858;2022-09-02T12:42:14;1.73;;;1.60;;
23123;SDS011;11731;48.592;8.858;2022-09-02T12:44:49;3.23;;;1.50;;
23123;SDS011;11731;48.592;8.858;2022-09-02T12:47:23;1.60;;;1.50;;
23123;SDS011;11731;48.592;8.858;2022-09-02T12:50:03;2.50;;;1.50;;
23123;SDS011;11731;48.592;8.858;2022-09-02T12:52:40;2.90;;;1.30;;
23123;SDS011;11731;48.592;8.858;2022-09-02T12:55:11;2.90;;;1.50;;
23123;SDS011;11731;48.592;8.858;2022-09-02T12:57:44;7.33;;;2.20;;
23123;SDS011;11731;48.592;8.858;2022-09-02T13:00:16;1.87;;;1.43;;
23123;SDS011;11731;48.592;8.858;2022-09-02T13:02:55;2.53;;;1.30;;
23123;SDS011;11731;48.592;8.858;2022-09-02T13:05:37;1.40;;;1.30;;
23123;SDS011;11731;48.592;8.858;2022-09-02T13:11:24;3.03;;;1.60;;
23123;SDS011;11731;48.592;8.858;2022-09-02T13:17:21;1.40;;;1.03;;
23123;SDS011;11731;48.592;8.858;2022-09-02T13:22:48;1.63;;;1.53;;
23123;SDS011;11731;48.592;8.858;2022-09-02T13:25:35;2.50;;;1.50;;
23123;SDS011;11731;48.592;8.858;2022-09-02T13:28:42;1.40;;;1.30;;
23123;SDS011;11731;48.592;8.858;2022-09-02T13:31:26;3.30;;;1.40;;
23123;SDS011;11731;48.592;8.858;2022-09-02T13:33:58;1.57;;;1.47;;
23123;SDS011;11731;48.592;8.858;2022-09-02T13:36:28;1.40;;;1.30;;
23123;SDS011;11731;48.592;8.858;2022-09-02T13:39:08;1.80;;;1.70;;
23123;SDS011;11731;48.592;8.858;2022-09-02T13:41:35;2.50;;;1.53;;
23123;SDS011;11731;48.592;8.858;2022-09-02T13:44:06;1.73;;;1.60;;
23123;SDS011;11731;48.592;8.858;2022-09-02T13:46:44;1.47;;;1.33;;
23123;SDS011;11731;48.592;8.858;2022-09-02T13:49:18;1.50;;;1.40;;
23123;SDS011;11731;48.592;8.858;2022-09-02T13:51:48;1.70;;;1.60;;
23123;SDS011;11731;48.592;8.858;2022-09-02T13:54:20;6.03;;;1.77;;
23123;SDS011;11731;48.592;8.858;2022-09-02T13:56:55;1.60;;;1.50;;
23123;SDS011;11731;48.592;8.858;2022-09-02T13:59:32;3.03;;;1.70;;
23123;SDS011;11731;48.592;8.858;2022-09-02T14:04:58;2.33;;;1.40;;
23123;SDS011;11731;48.592;8.858;2022-09-02T14:07:31;2.07;;;1.63;;
23123;SDS011;11731;48.592;8.858;2022-09-02T14:10:04;1.90;;;1.67;;
23123;SDS011;11731;48.592;8.858;2022-09-02T14:12:35;2.10;;;1.40;;
23123;SDS011;11731;48.592;8.858;2022-09-02T14:15:04;2.07;;;1.60;;
23123;SDS011;11731;48.592;8.858;2022-09-02T14:17:33;2.27;;;1.40;;
23123;SDS011;11731;48.592;8.858;2022-09-02T14:20:08;1.70;;;1.57;;
23123;SDS011;11731;48.592;8.858;2022-09-02T14:22:41;1.70;;;1.47;;
23123;SDS011;11731;48.592;8.858;2022-09-02T14:25:11;1.40;;;1.30;;
23123;SDS011;11731;48.592;8.858;2022-09-02T14:27:39;2.97;;;1.50;;
23123;SDS011;11731;48.592;8.858;2022-09-02T14:30:13;1.60;;;1.50;;
23123;SDS011;11731;48.592;8.858;2022-09-02T14:35:53;1.97;;;1.67;;
23123;SDS011;11731;48.592;8.858;2022-09-02T14:38:21;5.03;;;1.50;;
23123;SDS011;11731;48.592;8.858;2022-09-02T14:40:48;2.10;;;1.50;;
23123;SDS011;11731;48.592;8.858;2022-09-02T14:43:23;1.77;;;1.30;;
23123;SDS011;11731;48.592;8.858;2022-09-02T14:45:50;2.27;;;1.40;;
23123;SDS011;11731;48.592;8.858;2022-09-02T14:48:35;2.50;;;1.40;;
23123;SDS011;11731;48.592;8.858;2022-09-02T14:51:05;1.53;;;1.43;;
23123;SDS011;11731;48.592;8.858;2022-09-02T14:53:33;2.40;;;1.70;;
23123;SDS011;11731;48.592;8.858;2022-09-02T14:56:02;1.37;;;1.27;;
23123;SDS011;11731;48.592;8.858;2022-09-02T14:58:30;1.97;;;1.57;;
23123;SDS011;11731;48.592;8.858;2022-09-02T15:00:58;2.83;;;1.47;;
23123;SDS011;11731;48.592;8.858;2022-09-02T15:03:26;1.90;;;1.50;;
23123;SDS011;11731;48.592;8.858;2022-09-02T15:05:54;2.50;;;1.70;;
23123;SDS011;11731;48.592;8.858;2022-09-02T15:08:23;1.70;;;1.40;;
23123;SDS011;11731;48.592;8.858;2022-09-02T15:10:50;2.03;;;1.63;;
23123;SDS011;11731;48.592;8.858;2022-09-02T15:13:22;1.90;;;1.30;;
23123;SDS011;11731;48.592;8.858;2022-09-02T15:15:52;2.80;;;1.50;;
23123;SDS011;11731;48.592;8.858;2022-09-02T15:18:20;1.57;;;1.47;;
23123;SDS011;11731;48.592;8.858;2022-09-02T15:20:47;1.77;;;1.47;;
23123;SDS011;11731;48.592;8.858;2022-09-02T15:23:14;2.53;;;1.50;;
23123;SDS011;11731;48.592;8.858;2022-09-02T15:25:42;1.97;;;1.60;;
23123;SDS011;11731;48.592;8.858;2022-09-02T15:28:09;3.47;;;1.60;;
23123;SDS011;11731;48.592;8.858;2022-09-02T15:30:37;1.97;;;1.47;;
23123;SDS011;11731;48.592;8.858;2022-09-02T15:33:05;1.47;;;1.37;;
23123;SDS011;11731;48.592;8.858;2022-09-02T15:35:33;2.23;;;1.60;;
23123;SDS011;11731;48.592;8.858;2022-09-02T15:38:01;4.77;;;1.67;;
23123;SDS011;11731;48.592;8.858;2022-09-02T15:40:28;2.97;;;1.60;;
23123;SDS011;11731;48.592;8.858;2022-09-02T15:42:58;1.97;;;1.60;;
23123;SDS011;11731;48.592;8.858;2022-09-02T15:45:25;1.60;;;1.50;;
23123;SDS011;11731;48.592;8.858;2022-09-02T15:47:54;1.70;;;1.60;;